Time;durP1;ratioP1;P1;durP2;ratioP2;P2;SDS_P1;SDS_P2;PMS_P1;PMS_P2;Temp;Humidity;BMP_temperature;BMP_pressure;BME280_temperature;BME280_humidity;BME280_pressure;Samples;Min_cycle;Max_cycle;Signal;HPM_P1;HPM_P2
2023/04/29 00:00:19;;;;;;;6.57;4.18;;;;;;;;;;5053591;28;20484;-79
2023/04/29 00:02:45;;;;;;;8.60;5.13;;;;;;;;;;5053909;28;20397;-80
2023/04/29 00:05:10;;;;;;;6.50;4.57;;;;;;;;;;5060161;28;20029;-79
2023/04/29 00:07:36;;;;;;;8.02;4.55;;;;;;;;;;5054478;28;20369;-80
2023/04/29 00:10:01;;;;;;;7.20;3.92;;;;;;;;;;5053108;28;20033;-80
2023/04/29 00:12:30;;;;;;;6.60;4.85;;;;;;;;;;5053794;28;20087;-80
2023/04/29 00:14:56;;;;;;;6.45;4.22;;;;;;;;;;5054188;28;20044;-80
2023/04/29 00:17:21;;;;;;;7.93;4.18;;;;;;;;;;5056986;28;20033;-80
2023/04/29 00:19:47;;;;;;;8.07;4.78;;;;;;;;;;5052173;28;20033;-80
2023/04/29 00:22:12;;;;;;;8.68;4.88;;;;;;;;;;5053621;28;20036;-80
2023/04/29 00:24:38;;;;;;;7.60;4.68;;;;;;;;;;5060041;28;20404;-79
2023/04/29 00:27:05;;;;;;;7.78;4.43;;;;;;;;;;5037204;28;20075;-80
2023/04/29 00:29:30;;;;;;;6.95;4.35;;;;;;;;;;5052022;28;20025;-80
2023/04/29 00:31:55;;;;;;;8.68;4.57;;;;;;;;;;5053072;28;20048;-80
2023/04/29 00:34:21;;;;;;;8.00;4.60;;;;;;;;;;5053463;28;20113;-80
2023/04/29 00:36:47;;;;;;;7.28;4.40;;;;;;;;;;5038116;28;20404;-80
2023/04/29 00:39:12;;;;;;;6.43;4.35;;;;;;;;;;5051951;28;20029;-80
2023/04/29 00:41:38;;;;;;;7.22;4.40;;;;;;;;;;5038453;28;20075;-78
2023/04/29 00:44:03;;;;;;;8.45;4.68;;;;;;;;;;5050599;28;20506;-80
2023/04/29 00:46:29;;;;;;;7.53;4.80;;;;;;;;;;5056616;28;20041;-80
2023/04/29 00:48:54;;;;;;;8.38;4.82;;;;;;;;;;5051990;28;20488;-80
2023/04/29 00:51:20;;;;;;;9.07;4.97;;;;;;;;;;5051493;28;20041;-80
2023/04/29 00:53:45;;;;;;;8.07;4.68;;;;;;;;;;5051932;28;20025;-79
2023/04/29 00:56:13;;;;;;;9.63;4.88;;;;;;;;;;5044079;28;20570;-80
2023/04/29 00:58:39;;;;;;;10.65;5.25;;;;;;;;;;5051958;28;20484;-79
2023/04/29 01:01:05;;;;;;;7.25;4.68;;;;;;;;;;5052096;28;20095;-80
2023/04/29 01:03:31;;;;;;;9.10;5.45;;;;;;;;;;5051792;28;20396;-80
2023/04/29 01:06:08;;;;;;;8.85;5.60;;;;;;;;;;5032725;28;20327;-80
2023/04/29 01:08:41;;;;;;;9.52;5.57;;;;;;;;;;5044504;28;20040;-81
2023/04/29 01:11:10;;;;;;;9.48;5.78;;;;;;;;;;5052216;28;20041;-80
2023/04/29 01:13:43;;;;;;;11.45;6.90;;;;;;;;;;5054730;28;20052;-80
2023/04/29 01:16:46;;;;;;;12.18;6.38;;;;;;;;;;5051547;28;20538;-80
2023/04/29 01:19:19;;;;;;;12.15;6.80;;;;;;;;;;5021216;28;20040;-81
2023/04/29 01:21:48;;;;;;;10.10;6.47;;;;;;;;;;5039890;28;20516;-80
2023/04/29 01:24:14;;;;;;;11.75;7.15;;;;;;;;;;5032397;28;20040;-81
2023/04/29 01:26:45;;;;;;;8.77;6.53;;;;;;;;;;5027375;28;20508;-81
2023/04/29 01:29:26;;;;;;;11.45;7.00;;;;;;;;;;5050052;28;20056;-81
2023/04/29 01:32:03;;;;;;;11.65;7.20;;;;;;;;;;5050686;28;20347;-82
2023/04/29 01:34:33;;;;;;;11.38;7.28;;;;;;;;;;5060408;28;20459;-81
2023/04/29 01:37:34;;;;;;;12.57;7.80;;;;;;;;;;5037133;28;20066;-82
2023/04/29 01:40:16;;;;;;;11.55;7.38;;;;;;;;;;5031517;28;20037;-82
2023/04/29 01:43:00;;;;;;;13.05;8.70;;;;;;;;;;5047095;28;20063;-81
2023/04/29 01:45:27;;;;;;;13.98;8.55;;;;;;;;;;5031323;28;20116;-82
2023/04/29 01:47:55;;;;;;;13.90;9.38;;;;;;;;;;5051494;28;20033;-82
2023/04/29 01:50:20;;;;;;;15.65;8.77;;;;;;;;;;5048828;28;20077;-81
2023/04/29 01:52:46;;;;;;;14.00;9.02;;;;;;;;;;5052672;28;20036;-81
2023/04/29 01:55:11;;;;;;;14.35;8.98;;;;;;;;;;5059416;28;20032;-81
2023/04/29 01:57:36;;;;;;;15.45;9.90;;;;;;;;;;5050238;28;20029;-81
2023/04/29 02:00:03;;;;;;;13.25;9.05;;;;;;;;;;5058099;28;20029;-81
2023/04/29 02:02:29;;;;;;;14.15;8.77;;;;;;;;;;5041595;28;20033;-81
2023/04/29 02:04:54;;;;;;;13.65;8.48;;;;;;;;;;5054320;28;20056;-81
2023/04/29 02:07:20;;;;;;;15.25;9.60;;;;;;;;;;5052701;28;20037;-81
2023/04/29 02:09:46;;;;;;;12.95;8.77;;;;;;;;;;5049994;28;20037;-81
2023/04/29 02:12:11;;;;;;;15.82;8.98;;;;;;;;;;5049439;28;20029;-81
2023/04/29 02:14:36;;;;;;;14.18;9.95;;;;;;;;;;5051151;28;20037;-81
2023/04/29 02:17:02;;;;;;;16.50;9.05;;;;;;;;;;5048590;28;20036;-81
2023/04/29 02:19:27;;;;;;;14.27;9.30;;;;;;;;;;5049946;28;20491;-81
2023/04/29 02:21:53;;;;;;;15.15;10.27;;;;;;;;;;5048775;28;20042;-80
2023/04/29 02:24:18;;;;;;;14.77;9.65;;;;;;;;;;5042733;28;20186;-81
2023/04/29 02:26:43;;;;;;;15.75;9.70;;;;;;;;;;5049066;28;20051;-82
2023/04/29 02:29:09;;;;;;;18.45;10.70;;;;;;;;;;5031257;28;20531;-81
2023/04/29 02:31:34;;;;;;;16.23;10.10;;;;;;;;;;5049839;28;20056;-81
2023/04/29 02:34:00;;;;;;;15.23;10.60;;;;;;;;;;5050746;28;20037;-82
2023/04/29 02:36:25;;;;;;;17.55;10.77;;;;;;;;;;5048179;28;20029;-81
2023/04/29 02:38:54;;;;;;;16.35;10.57;;;;;;;;;;5054981;28;20339;-81
2023/04/29 02:41:19;;;;;;;16.98;11.13;;;;;;;;;;5053151;28;20094;-81
2023/04/29 02:43:45;;;;;;;16.13;9.68;;;;;;;;;;5053615;28;20028;-81
2023/04/29 02:46:10;;;;;;;15.57;10.45;;;;;;;;;;5056229;28;20037;-81
2023/04/29 02:48:36;;;;;;;14.95;10.20;;;;;;;;;;5055060;28;20122;-81
2023/04/29 02:51:01;;;;;;;17.75;11.48;;;;;;;;;;5052808;28;20501;-81
2023/04/29 02:53:26;;;;;;;20.33;11.70;;;;;;;;;;5054144;28;20040;-81
2023/04/29 02:55:52;;;;;;;15.85;10.88;;;;;;;;;;5053558;28;20174;-81
2023/04/29 02:58:17;;;;;;;17.85;11.75;;;;;;;;;;5055216;28;20033;-81
2023/04/29 03:00:43;;;;;;;17.65;11.48;;;;;;;;;;5054832;28;20438;-81
2023/04/29 03:03:08;;;;;;;18.92;11.93;;;;;;;;;;5056808;28;20158;-81
2023/04/29 03:05:34;;;;;;;18.58;11.82;;;;;;;;;;5051830;28;20500;-81
2023/04/29 03:08:00;;;;;;;20.10;12.30;;;;;;;;;;5039415;28;20090;-81
2023/04/29 03:10:25;;;;;;;21.10;12.60;;;;;;;;;;5054603;28;20044;-81
2023/04/29 03:12:51;;;;;;;19.58;12.18;;;;;;;;;;5053010;28;20037;-81
2023/04/29 03:15:16;;;;;;;18.77;12.30;;;;;;;;;;5055331;28;20514;-81
2023/04/29 03:17:41;;;;;;;18.33;12.88;;;;;;;;;;5039390;28;20037;-80
2023/04/29 03:20:09;;;;;;;20.40;12.65;;;;;;;;;;5041317;28;20155;-81
2023/04/29 03:22:34;;;;;;;22.13;12.52;;;;;;;;;;5054478;28;20037;-81
2023/04/29 03:25:00;;;;;;;18.08;12.15;;;;;;;;;;5053776;28;20056;-81
2023/04/29 03:27:25;;;;;;;21.08;12.73;;;;;;;;;;5057408;28;20113;-82
2023/04/29 03:29:51;;;;;;;18.63;12.23;;;;;;;;;;5046586;28;20044;-81
2023/04/29 03:32:16;;;;;;;21.42;13.27;;;;;;;;;;5052164;28;20033;-81
2023/04/29 03:34:42;;;;;;;21.52;13.27;;;;;;;;;;5057212;28;20081;-82
2023/04/29 03:37:07;;;;;;;20.85;13.23;;;;;;;;;;5041869;28;20112;-81
2023/04/29 03:39:32;;;;;;;22.10;13.27;;;;;;;;;;5056602;28;20403;-81
2023/04/29 03:41:58;;;;;;;20.10;13.23;;;;;;;;;;5044973;28;20062;-80
2023/04/29 03:44:24;;;;;;;23.75;14.55;;;;;;;;;;5051591;28;20033;-80
2023/04/29 03:46:49;;;;;;;23.52;14.43;;;;;;;;;;5050484;28;20726;-80
2023/04/29 03:49:15;;;;;;;20.35;13.43;;;;;;;;;;5051463;28;20035;-80
2023/04/29 03:51:40;;;;;;;21.40;13.52;;;;;;;;;;5061250;28;20045;-79
2023/04/29 03:54:06;;;;;;;22.27;14.00;;;;;;;;;;5053092;28;20060;-81
2023/04/29 03:56:31;;;;;;;22.95;14.63;;;;;;;;;;5052903;28;20040;-80
2023/04/29 03:58:57;;;;;;;22.73;14.43;;;;;;;;;;5054864;28;20036;-80
2023/04/29 04:01:22;;;;;;;23.63;14.07;;;;;;;;;;5053483;28;20107;-80
2023/04/29 04:03:47;;;;;;;23.63;14.27;;;;;;;;;;5036335;28;20033;-79
2023/04/29 04:06:13;;;;;;;24.42;14.77;;;;;;;;;;5053238;28;20504;-81
2023/04/29 04:08:40;;;;;;;22.73;13.88;;;;;;;;;;5053543;28;20060;-82
2023/04/29 04:11:05;;;;;;;25.38;14.90;;;;;;;;;;5069566;28;20083;-80
2023/04/29 04:13:31;;;;;;;24.52;14.90;;;;;;;;;;5052398;28;20078;-82
2023/04/29 04:15:57;;;;;;;25.20;14.95;;;;;;;;;;5053081;28;20507;-81
2023/04/29 04:18:23;;;;;;;23.73;14.55;;;;;;;;;;5051181;28;20071;-81
2023/04/29 04:20:48;;;;;;;22.13;14.05;;;;;;;;;;5059989;28;20040;-81
2023/04/29 04:23:14;;;;;;;23.98;14.30;;;;;;;;;;5053773;28;20089;-81
2023/04/29 04:25:46;;;;;;;27.55;15.43;;;;;;;;;;5054965;28;20477;-80
2023/04/29 04:28:11;;;;;;;26.05;15.63;;;;;;;;;;5041073;28;20119;-80
2023/04/29 04:30:37;;;;;;;25.08;14.90;;;;;;;;;;5051703;28;20033;-81
2023/04/29 04:33:02;;;;;;;25.73;14.85;;;;;;;;;;5050764;28;20058;-82
2023/04/29 04:35:28;;;;;;;25.02;14.80;;;;;;;;;;5052838;28;20219;-81
2023/04/29 04:37:53;;;;;;;26.77;15.38;;;;;;;;;;5058819;28;20667;-81
2023/04/29 04:40:19;;;;;;;24.50;15.18;;;;;;;;;;5037839;28;20041;-80
2023/04/29 04:42:45;;;;;;;24.98;14.63;;;;;;;;;;5052568;28;20097;-81
2023/04/29 04:45:10;;;;;;;27.85;16.48;;;;;;;;;;5044513;28;20500;-81
2023/04/29 04:47:36;;;;;;;26.15;14.93;;;;;;;;;;5050203;28;20084;-81
2023/04/29 04:50:03;;;;;;;26.45;15.38;;;;;;;;;;5052844;28;20485;-82
2023/04/29 04:52:28;;;;;;;28.13;14.95;;;;;;;;;;5051458;28;20054;-82
2023/04/29 04:54:54;;;;;;;27.50;15.77;;;;;;;;;;5050663;28;20053;-82
2023/04/29 04:57:19;;;;;;;27.67;15.93;;;;;;;;;;5036625;28;20052;-81
2023/04/29 04:59:45;;;;;;;30.15;15.68;;;;;;;;;;5049948;28;20067;-81
2023/04/29 05:02:10;;;;;;;27.27;15.63;;;;;;;;;;5051958;28;20035;-80
2023/04/29 05:04:36;;;;;;;27.88;16.17;;;;;;;;;;5054463;28;20399;-82
2023/04/29 05:07:01;;;;;;;27.33;15.63;;;;;;;;;;5049471;28;20043;-81
2023/04/29 05:09:26;;;;;;;30.00;17.38;;;;;;;;;;5054361;28;20384;-80
2023/04/29 05:11:53;;;;;;;29.63;15.73;;;;;;;;;;5050834;28;20048;-79
2023/04/29 05:14:18;;;;;;;29.60;16.38;;;;;;;;;;5051440;28;20101;-79
2023/04/29 05:16:45;;;;;;;32.03;16.92;;;;;;;;;;5037491;28;20475;-81
2023/04/29 05:19:10;;;;;;;30.65;16.80;;;;;;;;;;5043751;28;20062;-81
2023/04/29 05:21:36;;;;;;;28.02;15.63;;;;;;;;;;5057089;28;20043;-82
2023/04/29 05:24:01;;;;;;;31.40;16.90;;;;;;;;;;5053455;28;20104;-81
2023/04/29 05:26:27;;;;;;;27.88;16.02;;;;;;;;;;5036199;28;20037;-81
2023/04/29 05:28:52;;;;;;;29.95;15.98;;;;;;;;;;5033084;28;20124;-82
2023/04/29 05:31:17;;;;;;;30.20;17.02;;;;;;;;;;5052818;28;20037;-81
2023/04/29 05:33:43;;;;;;;30.02;16.15;;;;;;;;;;5042675;28;20735;-80
2023/04/29 05:36:08;;;;;;;28.88;16.48;;;;;;;;;;5054660;28;20037;-81
2023/04/29 05:38:33;;;;;;;31.17;17.13;;;;;;;;;;5049805;28;20055;-81
2023/04/29 05:40:59;;;;;;;30.70;16.33;;;;;;;;;;5049792;28;20503;-81
2023/04/29 05:43:24;;;;;;;29.92;16.88;;;;;;;;;;5043439;28;20032;-80
2023/04/29 05:45:50;;;;;;;32.70;17.50;;;;;;;;;;5059110;28;20856;-81
2023/04/29 05:48:15;;;;;;;32.45;16.65;;;;;;;;;;5051240;28;20032;-81
2023/04/29 05:50:41;;;;;;;32.50;17.08;;;;;;;;;;5059478;28;20037;-81
2023/04/29 05:53:06;;;;;;;35.75;16.90;;;;;;;;;;5054853;28;20062;-81
2023/04/29 05:55:32;;;;;;;29.33;16.83;;;;;;;;;;5035094;28;20064;-81
2023/04/29 05:57:57;;;;;;;31.98;16.80;;;;;;;;;;5050842;28;20174;-81
2023/04/29 06:00:23;;;;;;;31.98;16.10;;;;;;;;;;5050013;28;20780;-81
2023/04/29 06:02:48;;;;;;;33.83;16.70;;;;;;;;;;5048058;28;20036;-81
2023/04/29 06:05:14;;;;;;;33.40;16.38;;;;;;;;;;5051022;28;20029;-80
2023/04/29 06:07:40;;;;;;;30.63;17.13;;;;;;;;;;5049274;28;20041;-81
2023/04/29 06:10:06;;;;;;;35.40;17.23;;;;;;;;;;5038242;28;20396;-82
2023/04/29 06:12:31;;;;;;;33.97;17.17;;;;;;;;;;5052282;28;20448;-82
2023/04/29 06:14:57;;;;;;;31.15;15.95;;;;;;;;;;5051399;28;20037;-81
2023/04/29 06:17:22;;;;;;;28.67;14.40;;;;;;;;;;5049735;28;20033;-81
2023/04/29 06:19:47;;;;;;;31.35;15.90;;;;;;;;;;5039451;28;20044;-81
2023/04/29 06:22:13;;;;;;;37.17;16.27;;;;;;;;;;5058445;28;20411;-81
2023/04/29 06:24:38;;;;;;;30.92;15.68;;;;;;;;;;5048708;28;20207;-82
2023/04/29 06:27:04;;;;;;;32.60;15.90;;;;;;;;;;5039696;28;20068;-81
2023/04/29 06:29:29;;;;;;;33.13;15.57;;;;;;;;;;5051515;28;20753;-81
2023/04/29 06:31:55;;;;;;;30.15;14.38;;;;;;;;;;5049778;28;20124;-82
2023/04/29 06:34:20;;;;;;;30.75;14.00;;;;;;;;;;5050418;28;20378;-81
2023/04/29 06:36:46;;;;;;;31.98;14.60;;;;;;;;;;5052038;28;20112;-81
2023/04/29 06:39:11;;;;;;;29.83;13.45;;;;;;;;;;5053325;28;20032;-81
2023/04/29 06:41:36;;;;;;;28.75;13.25;;;;;;;;;;5052908;28;20500;-81
2023/04/29 06:44:02;;;;;;;28.60;12.98;;;;;;;;;;5050942;28;20032;-81
2023/04/29 06:46:29;;;;;;;28.92;13.00;;;;;;;;;;5050562;28;20029;-81
2023/04/29 06:48:54;;;;;;;27.43;12.77;;;;;;;;;;5050999;28;20108;-81
2023/04/29 06:51:19;;;;;;;25.92;12.32;;;;;;;;;;5041551;28;20120;-81
2023/04/29 06:53:45;;;;;;;27.05;12.35;;;;;;;;;;5050456;28;20036;-81
2023/04/29 06:56:11;;;;;;;23.17;11.23;;;;;;;;;;5052677;28;20040;-81
2023/04/29 06:58:37;;;;;;;22.98;10.55;;;;;;;;;;5050459;28;20036;-81
2023/04/29 07:01:03;;;;;;;23.45;11.15;;;;;;;;;;5065754;28;20037;-81
2023/04/29 07:03:28;;;;;;;25.67;11.27;;;;;;;;;;5038247;28;20385;-81
2023/04/29 07:05:54;;;;;;;23.75;11.07;;;;;;;;;;5057067;28;20045;-81
2023/04/29 07:08:19;;;;;;;23.17;11.50;;;;;;;;;;5049413;28;20033;-81
2023/04/29 07:10:55;;;;;;;23.55;12.40;;;;;;;;;;5051093;28;20151;-81
2023/04/29 07:13:20;;;;;;;24.40;11.90;;;;;;;;;;5041121;28;20041;-81
2023/04/29 07:15:46;;;;;;;27.92;13.07;;;;;;;;;;5037768;28;20047;-81
2023/04/29 07:18:11;;;;;;;28.98;13.35;;;;;;;;;;5051857;28;20123;-82
2023/04/29 07:20:37;;;;;;;28.92;12.90;;;;;;;;;;5050481;28;20495;-82
2023/04/29 07:23:02;;;;;;;29.15;12.82;;;;;;;;;;5051057;28;20044;-82
2023/04/29 07:25:28;;;;;;;33.22;14.20;;;;;;;;;;5053553;28;20049;-81
2023/04/29 07:27:54;;;;;;;33.35;15.30;;;;;;;;;;5054007;28;20052;-82
2023/04/29 07:30:19;;;;;;;31.55;14.48;;;;;;;;;;5056405;28;20045;-81
2023/04/29 07:32:45;;;;;;;33.05;15.63;;;;;;;;;;5052213;28;20033;-81
2023/04/29 07:35:10;;;;;;;30.40;14.70;;;;;;;;;;5054203;28;20093;-81
2023/04/29 07:37:35;;;;;;;30.33;15.75;;;;;;;;;;5060799;28;20060;-81
2023/04/29 07:40:01;;;;;;;27.08;13.25;;;;;;;;;;5055323;28;20097;-81
2023/04/29 07:42:26;;;;;;;26.52;14.27;;;;;;;;;;5055610;28;20119;-82
2023/04/29 07:44:51;;;;;;;28.98;14.68;;;;;;;;;;5053670;28;20082;-81
2023/04/29 07:47:17;;;;;;;26.55;14.18;;;;;;;;;;5053670;28;20037;-82
2023/04/29 07:49:42;;;;;;;27.15;13.85;;;;;;;;;;5053946;28;20029;-81
2023/04/29 07:52:10;;;;;;;25.60;13.85;;;;;;;;;;5052571;28;20085;-82
2023/04/29 07:54:35;;;;;;;25.85;13.43;;;;;;;;;;5052399;28;20033;-82
2023/04/29 07:57:02;;;;;;;26.27;14.40;;;;;;;;;;5039351;28;20047;-82
2023/04/29 07:59:28;;;;;;;23.67;13.00;;;;;;;;;;5052369;28;20400;-80
2023/04/29 08:01:54;;;;;;;22.40;13.45;;;;;;;;;;5039544;28;20061;-81
2023/04/29 08:04:20;;;;;;;21.58;12.93;;;;;;;;;;5052854;28;20025;-79
2023/04/29 08:06:45;;;;;;;20.35;12.43;;;;;;;;;;5045487;28;20109;-80
2023/04/29 08:09:11;;;;;;;19.15;11.75;;;;;;;;;;5051669;28;20037;-80
2023/04/29 08:11:36;;;;;;;18.38;11.50;;;;;;;;;;5051787;28;20037;-80
2023/04/29 08:14:01;;;;;;;18.10;10.38;;;;;;;;;;5038302;28;20040;-79
2023/04/29 08:16:27;;;;;;;18.75;10.85;;;;;;;;;;5043424;28;20028;-80
2023/04/29 08:18:53;;;;;;;18.63;10.52;;;;;;;;;;5050141;28;20488;-82
2023/04/29 08:21:18;;;;;;;16.83;10.27;;;;;;;;;;5060536;28;20504;-82
2023/04/29 08:23:44;;;;;;;18.15;10.98;;;;;;;;;;5042988;28;20033;-81
2023/04/29 08:26:11;;;;;;;16.65;9.95;;;;;;;;;;5062170;28;20971;-82
2023/04/29 08:28:37;;;;;;;15.98;9.65;;;;;;;;;;5051838;28;20546;-80
2023/04/29 08:31:04;;;;;;;19.27;10.93;;;;;;;;;;5050311;28;20036;-82
2023/04/29 08:33:30;;;;;;;16.75;10.45;;;;;;;;;;5052310;28;20043;-81
2023/04/29 08:36:02;;;;;;;16.08;9.52;;;;;;;;;;5053242;28;20036;-82
2023/04/29 08:38:44;;;;;;;15.43;9.40;;;;;;;;;;5054783;28;20480;-81
2023/04/29 08:41:10;;;;;;;16.35;9.43;;;;;;;;;;5051947;28;20047;-82
2023/04/29 08:43:39;;;;;;;17.27;9.88;;;;;;;;;;5045633;28;20034;-81
2023/04/29 08:46:05;;;;;;;15.35;9.52;;;;;;;;;;5046647;28;20478;-81
2023/04/29 08:48:31;;;;;;;15.00;9.50;;;;;;;;;;5051254;28;20041;-82
2023/04/29 08:50:58;;;;;;;15.48;9.68;;;;;;;;;;5040547;28;20041;-82
2023/04/29 08:53:23;;;;;;;15.18;9.10;;;;;;;;;;5036735;28;20033;-81
2023/04/29 08:55:49;;;;;;;15.98;9.85;;;;;;;;;;5037346;28;20045;-81
2023/04/29 08:58:15;;;;;;;15.52;9.68;;;;;;;;;;5056885;28;20103;-80
2023/04/29 09:00:42;;;;;;;15.77;9.77;;;;;;;;;;5051901;28;20127;-80
2023/04/29 09:03:20;;;;;;;14.10;9.10;;;;;;;;;;5038777;28;20697;-81
2023/04/29 09:05:49;;;;;;;17.00;9.57;;;;;;;;;;5058199;28;20033;-80
2023/04/29 09:08:31;;;;;;;16.02;9.68;;;;;;;;;;5059415;28;20377;-82
2023/04/29 09:10:57;;;;;;;18.77;9.95;;;;;;;;;;5032307;28;20043;-82
2023/04/29 09:13:23;;;;;;;18.25;10.68;;;;;;;;;;5051203;28;20099;-81
2023/04/29 09:15:48;;;;;;;18.63;10.15;;;;;;;;;;5050321;28;20037;-81
2023/04/29 09:18:44;;;;;;;18.83;10.82;;;;;;;;;;5051214;28;20507;-81
2023/04/29 09:21:22;;;;;;;20.60;10.95;;;;;;;;;;5069895;28;20043;-81
2023/04/29 09:23:56;;;;;;;20.75;11.63;;;;;;;;;;5050526;28;20048;-81
2023/04/29 09:26:23;;;;;;;21.92;11.98;;;;;;;;;;5043274;28;20072;-81
2023/04/29 09:29:08;;;;;;;20.15;11.82;;;;;;;;;;5059981;28;20043;-81
2023/04/29 09:31:37;;;;;;;21.58;11.75;;;;;;;;;;5041825;28;20045;-81
2023/04/29 09:34:02;;;;;;;25.93;12.83;;;;;;;;;;5043205;28;20670;-81
2023/04/29 09:36:44;;;;;;;22.67;12.25;;;;;;;;;;5049982;28;20073;-81
2023/04/29 09:39:17;;;;;;;23.70;13.18;;;;;;;;;;5052110;28;20037;-81
2023/04/29 09:41:52;;;;;;;24.67;13.27;;;;;;;;;;5033454;28;20108;-81
2023/04/29 09:44:22;;;;;;;23.73;12.40;;;;;;;;;;5048444;28;20553;-80
2023/04/29 09:47:08;;;;;;;26.38;13.70;;;;;;;;;;5048114;28;20807;-81
2023/04/29 09:49:39;;;;;;;28.13;13.88;;;;;;;;;;5048959;28;20435;-81
2023/04/29 09:52:07;;;;;;;27.73;14.45;;;;;;;;;;5059210;28;20040;-81
2023/04/29 09:54:35;;;;;;;25.60;14.02;;;;;;;;;;5043241;28;20484;-81
2023/04/29 09:57:01;;;;;;;28.30;15.13;;;;;;;;;;5032380;28;20041;-81
2023/04/29 09:59:27;;;;;;;26.35;14.93;;;;;;;;;;5051319;28;20842;-81
2023/04/29 10:01:56;;;;;;;24.38;14.35;;;;;;;;;;5039122;28;20033;-80
2023/04/29 10:04:23;;;;;;;29.92;15.40;;;;;;;;;;5052624;28;20038;-81
2023/04/29 10:06:51;;;;;;;29.08;14.80;;;;;;;;;;5050351;28;20028;-80
2023/04/29 10:09:17;;;;;;;26.35;15.63;;;;;;;;;;5050484;28;20108;-80
2023/04/29 10:11:47;;;;;;;31.15;16.23;;;;;;;;;;5051388;28;20037;-81
2023/04/29 10:14:17;;;;;;;29.25;15.65;;;;;;;;;;5058310;28;20050;-81
2023/04/29 10:16:53;;;;;;;30.05;15.45;;;;;;;;;;5038268;28;20025;-81
2023/04/29 10:19:26;;;;;;;30.63;16.42;;;;;;;;;;5051559;28;20031;-81
2023/04/29 10:21:53;;;;;;;29.77;16.77;;;;;;;;;;5051694;28;20515;-81
2023/04/29 10:24:20;;;;;;;31.05;16.88;;;;;;;;;;5059204;28;20098;-80
2023/04/29 10:26:46;;;;;;;31.42;17.95;;;;;;;;;;5057680;28;20048;-81
2023/04/29 10:29:14;;;;;;;36.42;18.88;;;;;;;;;;5059283;28;20483;-80
2023/04/29 10:31:40;;;;;;;35.35;18.55;;;;;;;;;;5057992;28;20045;-81
2023/04/29 10:34:05;;;;;;;37.03;19.05;;;;;;;;;;5049910;28;20396;-81
2023/04/29 10:36:32;;;;;;;37.88;20.23;;;;;;;;;;5051022;28;20037;-81
2023/04/29 10:39:00;;;;;;;39.15;19.70;;;;;;;;;;5033190;28;20040;-81
2023/04/29 10:41:25;;;;;;;;;;;;;;;;;;5058376;28;20489;-81
2023/04/29 10:43:51;;;;;;;34.30;18.08;;;;;;;;;;5053175;28;19917;-81
2023/04/29 10:46:27;;;;;;;36.53;19.40;;;;;;;;;;5049454;28;20036;-80
2023/04/29 10:49:00;;;;;;;40.42;21.23;;;;;;;;;;5040989;28;20044;-81
2023/04/29 10:51:33;;;;;;;39.90;19.05;;;;;;;;;;5033750;28;20090;-80
2023/04/29 10:53:59;;;;;;;34.28;19.25;;;;;;;;;;5048838;28;20037;-81
2023/04/29 10:56:36;;;;;;;34.53;18.83;;;;;;;;;;5056400;28;20063;-80
2023/04/29 10:59:01;;;;;;;34.38;19.38;;;;;;;;;;5034936;28;20050;-80
2023/04/29 11:01:41;;;;;;;30.92;18.98;;;;;;;;;;5038116;28;20033;-80
2023/04/29 11:04:06;;;;;;;33.25;18.55;;;;;;;;;;5054423;28;20611;-80
2023/04/29 11:06:34;;;;;;;29.40;17.45;;;;;;;;;;5060949;28;20032;-80
2023/04/29 11:09:06;;;;;;;30.17;17.33;;;;;;;;;;5051028;28;20485;-81
2023/04/29 11:11:52;;;;;;;28.67;17.55;;;;;;;;;;5052002;28;20586;-81
2023/04/29 11:14:24;;;;;;;28.63;16.05;;;;;;;;;;5054023;28;20025;-80
2023/04/29 11:16:55;;;;;;;27.13;16.08;;;;;;;;;;5052391;28;20107;-80
2023/04/29 11:19:23;;;;;;;25.00;14.45;;;;;;;;;;5062476;28;20032;-81
2023/04/29 11:22:10;;;;;;;21.05;14.00;;;;;;;;;;5051928;28;20043;-81
2023/04/29 11:24:36;;;;;;;19.38;13.02;;;;;;;;;;5052276;28;20039;-80
2023/04/29 11:27:05;;;;;;;20.83;14.23;;;;;;;;;;5055064;28;20044;-81
2023/04/29 11:29:32;;;;;;;21.63;14.10;;;;;;;;;;5054586;28;20503;-81
2023/04/29 11:31:59;;;;;;;22.00;14.07;;;;;;;;;;5039869;28;20131;-81
2023/04/29 11:34:25;;;;;;;20.63;14.55;;;;;;;;;;5034217;28;20041;-82
2023/04/29 11:36:50;;;;;;;22.50;14.45;;;;;;;;;;5054055;28;20094;-80
2023/04/29 11:39:16;;;;;;;18.83;12.70;;;;;;;;;;5045068;28;20028;-80
2023/04/29 11:41:41;;;;;;;23.65;13.10;;;;;;;;;;5061078;28;20087;-81
2023/04/29 11:44:08;;;;;;;21.08;12.75;;;;;;;;;;5044754;28;20912;-81
2023/04/29 11:46:33;;;;;;;20.48;13.63;;;;;;;;;;5034804;28;20039;-81
2023/04/29 11:48:59;;;;;;;19.85;12.68;;;;;;;;;;5037626;28;20497;-81
2023/04/29 11:51:24;;;;;;;17.52;12.93;;;;;;;;;;5047361;28;20070;-81
2023/04/29 11:53:50;;;;;;;18.55;12.65;;;;;;;;;;5054235;28;20132;-81
2023/04/29 11:56:15;;;;;;;19.38;12.48;;;;;;;;;;5032183;28;20057;-80
2023/04/29 11:58:42;;;;;;;20.05;12.35;;;;;;;;;;5026887;28;20117;-80
2023/04/29 12:01:07;;;;;;;18.25;11.75;;;;;;;;;;5042786;28;20033;-80
2023/04/29 12:03:33;;;;;;;18.13;11.70;;;;;;;;;;5056253;28;20507;-81
2023/04/29 12:05:58;;;;;;;17.48;11.63;;;;;;;;;;5051117;28;20098;-81
2023/04/29 12:08:25;;;;;;;17.75;11.73;;;;;;;;;;5037592;28;20122;-81
2023/04/29 12:10:56;;;;;;;15.68;11.10;;;;;;;;;;5044136;28;20663;-81
2023/04/29 12:13:27;;;;;;;17.85;11.00;;;;;;;;;;5041608;28;20029;-81
2023/04/29 12:15:52;;;;;;;15.35;10.75;;;;;;;;;;5044426;28;20037;-81
2023/04/29 12:18:18;;;;;;;16.20;11.52;;;;;;;;;;5044584;28;20041;-81
2023/04/29 12:20:45;;;;;;;16.33;11.18;;;;;;;;;;5052800;28;20148;-80
2023/04/29 12:23:14;;;;;;;18.45;11.27;;;;;;;;;;5061686;28;20507;-81
2023/04/29 12:25:40;;;;;;;16.83;11.35;;;;;;;;;;5018695;28;20061;-81
2023/04/29 12:28:12;;;;;;;14.55;10.27;;;;;;;;;;5051223;28;20036;-81
2023/04/29 12:30:37;;;;;;;15.88;10.68;;;;;;;;;;5014938;28;20037;-81
2023/04/29 12:33:03;;;;;;;16.05;10.13;;;;;;;;;;5019181;28;20033;-81
2023/04/29 12:35:28;;;;;;;16.73;10.18;;;;;;;;;;5035787;28;20071;-80
2023/04/29 12:37:57;;;;;;;14.98;10.45;;;;;;;;;;5054028;28;20123;-80
2023/04/29 12:40:23;;;;;;;16.55;9.90;;;;;;;;;;5038302;28;20021;-81
2023/04/29 12:42:49;;;;;;;14.98;9.65;;;;;;;;;;5052947;28;20040;-81
2023/04/29 12:45:26;;;;;;;16.48;9.57;;;;;;;;;;5052932;28;20033;-81
2023/04/29 12:47:52;;;;;;;14.52;8.80;;;;;;;;;;5052400;28;20055;-80
2023/04/29 12:50:18;;;;;;;14.45;9.45;;;;;;;;;;5027851;28;20471;-81
2023/04/29 12:52:43;;;;;;;13.52;9.07;;;;;;;;;;5036777;28;20112;-80
2023/04/29 12:55:10;;;;;;;11.40;8.30;;;;;;;;;;5054208;28;20553;-81
2023/04/29 12:57:36;;;;;;;11.70;7.85;;;;;;;;;;5052288;28;20211;-81
2023/04/29 13:00:03;;;;;;;10.45;7.10;;;;;;;;;;5050417;28;20116;-81
2023/04/29 13:02:28;;;;;;;12.15;7.22;;;;;;;;;;5060511;28;20455;-81
2023/04/29 13:04:53;;;;;;;9.70;6.70;;;;;;;;;;5051505;28;20048;-81
2023/04/29 13:07:19;;;;;;;10.70;5.90;;;;;;;;;;5050431;28;20028;-80
2023/04/29 13:09:45;;;;;;;8.45;5.50;;;;;;;;;;5051653;28;20040;-80
2023/04/29 13:12:10;;;;;;;8.63;4.97;;;;;;;;;;5053785;28;20037;-80
2023/04/29 13:14:35;;;;;;;8.32;5.75;;;;;;;;;;5054745;28;20032;-81
2023/04/29 13:17:02;;;;;;;7.57;4.80;;;;;;;;;;5037267;28;20044;-81
2023/04/29 13:19:28;;;;;;;6.85;4.65;;;;;;;;;;5051178;28;20044;-80
2023/04/29 13:21:53;;;;;;;7.65;4.35;;;;;;;;;;5050138;28;20036;-82
2023/04/29 13:24:19;;;;;;;5.80;3.78;;;;;;;;;;5051590;28;20028;-79
2023/04/29 13:26:47;;;;;;;5.18;3.63;;;;;;;;;;5050818;28;20094;-80
2023/04/29 13:29:12;;;;;;;5.35;3.33;;;;;;;;;;5050564;28;20503;-80
2023/04/29 13:31:37;;;;;;;4.72;3.20;;;;;;;;;;5048722;28;20033;-80
2023/04/29 13:34:03;;;;;;;5.60;3.20;;;;;;;;;;5049393;28;20273;-80
2023/04/29 13:36:29;;;;;;;6.15;3.00;;;;;;;;;;5042830;28;20665;-82
2023/04/29 13:38:55;;;;;;;4.28;2.67;;;;;;;;;;5065166;28;20072;-81
2023/04/29 13:41:21;;;;;;;4.63;2.75;;;;;;;;;;5039435;28;20138;-80
2023/04/29 13:43:47;;;;;;;6.03;3.00;;;;;;;;;;5049133;28;20033;-79
2023/04/29 13:46:13;;;;;;;4.20;2.80;;;;;;;;;;5040043;28;20112;-79
2023/04/29 13:48:39;;;;;;;5.25;3.33;;;;;;;;;;5051010;28;20112;-81
2023/04/29 13:51:04;;;;;;;4.95;3.28;;;;;;;;;;5051836;28;20043;-82
2023/04/29 13:53:29;;;;;;;8.23;4.75;;;;;;;;;;5050253;28;20062;-81
2023/04/29 13:55:55;;;;;;;11.57;5.93;;;;;;;;;;5052009;28;20037;-81
2023/04/29 13:58:20;;;;;;;6.75;4.25;;;;;;;;;;5050626;28;20031;-81
2023/04/29 14:00:46;;;;;;;6.93;3.92;;;;;;;;;;5057785;28;20037;-81
2023/04/29 14:03:11;;;;;;;7.57;4.15;;;;;;;;;;5053042;28;20502;-82
2023/04/29 14:05:37;;;;;;;6.05;3.60;;;;;;;;;;5050735;28;20804;-80
2023/04/29 14:08:03;;;;;;;6.60;4.10;;;;;;;;;;5037504;28;20151;-81
2023/04/29 14:10:28;;;;;;;7.53;4.63;;;;;;;;;;5052409;28;20507;-81
2023/04/29 14:12:54;;;;;;;7.13;4.18;;;;;;;;;;5048844;28;20520;-80
2023/04/29 14:15:19;;;;;;;7.85;4.15;;;;;;;;;;5053806;28;20961;-80
2023/04/29 14:17:45;;;;;;;7.20;4.57;;;;;;;;;;5048708;28;20033;-80
2023/04/29 14:20:11;;;;;;;10.50;5.20;;;;;;;;;;5050333;28;20032;-81
2023/04/29 14:22:36;;;;;;;9.18;5.05;;;;;;;;;;5037310;28;20048;-81